sensor_id;sensor_type;location;lat;lon;timestamp;P1;durP1;ratioP1;P2;durP2;ratioP2
5754;SDS011;2902;42.130;24.732;2023-04-16T00:00:13;2.37;;;2.17;;
5754;SDS011;2902;42.130;24.732;2023-04-16T00:02:41;3.17;;;1.90;;
5754;SDS011;2902;42.130;24.732;2023-04-16T00:05:08;1.90;;;1.73;;
5754;SDS011;2902;42.130;24.732;2023-04-16T00:07:34;5.53;;;2.20;;
5754;SDS011;2902;42.130;24.732;2023-04-16T00:10:01;4.53;;;1.90;;
5754;SDS011;2902;42.130;24.732;2023-04-16T00:12:28;2.23;;;2.10;;
5754;SDS011;2902;42.130;24.732;2023-04-16T00:14:55;3.47;;;2.30;;
5754;SDS011;2902;42.130;24.732;2023-04-16T00:17:21;3.93;;;2.27;;
5754;SDS011;2902;42.130;24.732;2023-04-16T00:19:49;5.53;;;2.07;;
5754;SDS011;2902;42.130;24.732;2023-04-16T00:22:16;3.20;;;2.13;;
5754;SDS011;2902;42.130;24.732;2023-04-16T00:24:43;2.20;;;1.97;;
5754;SDS011;2902;42.130;24.732;2023-04-16T00:27:09;4.83;;;2.70;;
5754;SDS011;2902;42.130;24.732;2023-04-16T00:29:36;3.43;;;2.23;;
5754;SDS011;2902;42.130;24.732;2023-04-16T00:32:03;2.40;;;2.20;;
5754;SDS011;2902;42.130;24.732;2023-04-16T00:34:30;4.87;;;2.60;;
5754;SDS011;2902;42.130;24.732;2023-04-16T00:36:58;3.30;;;2.40;;
5754;SDS011;2902;42.130;24.732;2023-04-16T00:39:25;5.67;;;1.90;;
5754;SDS011;2902;42.130;24.732;2023-04-16T00:41:51;3.67;;;1.90;;
5754;SDS011;2902;42.130;24.732;2023-04-16T00:44:18;5.43;;;1.70;;
5754;SDS011;2902;42.130;24.732;2023-04-16T00:46:45;3.30;;;2.37;;
5754;SDS011;2902;42.130;24.732;2023-04-16T00:49:12;4.73;;;2.30;;
5754;SDS011;2902;42.130;24.732;2023-04-16T00:51:38;2.53;;;2.13;;
5754;SDS011;2902;42.130;24.732;2023-04-16T00:54:07;4.80;;;2.10;;
5754;SDS011;2902;42.130;24.732;2023-04-16T00:56:33;2.33;;;2.03;;
5754;SDS011;2902;42.130;24.732;2023-04-16T00:59:01;3.80;;;1.90;;
5754;SDS011;2902;42.130;24.732;2023-04-16T01:01:27;2.50;;;2.20;;
5754;SDS011;2902;42.130;24.732;2023-04-16T01:03:54;3.10;;;2.50;;
5754;SDS011;2902;42.130;24.732;2023-04-16T01:06:21;5.47;;;3.10;;
5754;SDS011;2902;42.130;24.732;2023-04-16T01:08:48;5.97;;;3.60;;
5754;SDS011;2902;42.130;24.732;2023-04-16T01:11:16;6.53;;;3.37;;
5754;SDS011;2902;42.130;24.732;2023-04-16T01:13:42;6.87;;;3.37;;
5754;SDS011;2902;42.130;24.732;2023-04-16T01:16:10;4.07;;;2.70;;
5754;SDS011;2902;42.130;24.732;2023-04-16T01:18:37;6.37;;;2.90;;
5754;SDS011;2902;42.130;24.732;2023-04-16T01:21:06;6.10;;;2.70;;
5754;SDS011;2902;42.130;24.732;2023-04-16T01:23:32;3.67;;;3.20;;
5754;SDS011;2902;42.130;24.732;2023-04-16T01:25:59;5.97;;;4.23;;
5754;SDS011;2902;42.130;24.732;2023-04-16T01:28:26;4.80;;;3.43;;
5754;SDS011;2902;42.130;24.732;2023-04-16T01:30:53;8.20;;;3.00;;
5754;SDS011;2902;42.130;24.732;2023-04-16T01:33:19;4.53;;;3.67;;
5754;SDS011;2902;42.130;24.732;2023-04-16T01:35:46;6.13;;;3.57;;
5754;SDS011;2902;42.130;24.732;2023-04-16T01:38:14;7.80;;;3.60;;
5754;SDS011;2902;42.130;24.732;2023-04-16T01:40:41;15.43;;;4.20;;
5754;SDS011;2902;42.130;24.732;2023-04-16T01:43:08;4.63;;;2.90;;
5754;SDS011;2902;42.130;24.732;2023-04-16T01:45:35;4.57;;;2.90;;
5754;SDS011;2902;42.130;24.732;2023-04-16T01:48:02;3.30;;;2.83;;
5754;SDS011;2902;42.130;24.732;2023-04-16T01:50:29;3.63;;;3.10;;
5754;SDS011;2902;42.130;24.732;2023-04-16T01:52:56;5.40;;;2.93;;
5754;SDS011;2902;42.130;24.732;2023-04-16T01:55:24;3.43;;;2.97;;
5754;SDS011;2902;42.130;24.732;2023-04-16T01:57:51;2.83;;;2.60;;
5754;SDS011;2902;42.130;24.732;2023-04-16T02:00:17;3.53;;;3.23;;
5754;SDS011;2902;42.130;24.732;2023-04-16T02:02:44;4.10;;;2.67;;
5754;SDS011;2902;42.130;24.732;2023-04-16T02:05:13;4.10;;;3.03;;
5754;SDS011;2902;42.130;24.732;2023-04-16T02:07:39;5.67;;;3.10;;
5754;SDS011;2902;42.130;24.732;2023-04-16T02:10:06;4.80;;;3.10;;
5754;SDS011;2902;42.130;24.732;2023-04-16T02:12:35;2.80;;;2.57;;
5754;SDS011;2902;42.130;24.732;2023-04-16T02:15:02;4.53;;;2.70;;
5754;SDS011;2902;42.130;24.732;2023-04-16T02:17:30;7.67;;;2.73;;
5754;SDS011;2902;42.130;24.732;2023-04-16T02:19:56;2.57;;;2.37;;
5754;SDS011;2902;42.130;24.732;2023-04-16T02:22:23;3.67;;;3.00;;
5754;SDS011;2902;42.130;24.732;2023-04-16T02:24:50;4.47;;;2.80;;
5754;SDS011;2902;42.130;24.732;2023-04-16T02:27:16;3.37;;;3.03;;
5754;SDS011;2902;42.130;24.732;2023-04-16T02:29:44;5.27;;;3.20;;
5754;SDS011;2902;42.130;24.732;2023-04-16T02:32:11;4.33;;;3.30;;
5754;SDS011;2902;42.130;24.732;2023-04-16T02:34:38;3.10;;;2.80;;
5754;SDS011;2902;42.130;24.732;2023-04-16T02:37:05;3.43;;;3.13;;
5754;SDS011;2902;42.130;24.732;2023-04-16T02:39:32;5.47;;;2.93;;
5754;SDS011;2902;42.130;24.732;2023-04-16T02:41:59;7.00;;;3.40;;
5754;SDS011;2902;42.130;24.732;2023-04-16T02:44:26;3.17;;;2.93;;
5754;SDS011;2902;42.130;24.732;2023-04-16T02:46:54;5.93;;;3.23;;
5754;SDS011;2902;42.130;24.732;2023-04-16T02:49:21;4.43;;;4.03;;
5754;SDS011;2902;42.130;24.732;2023-04-16T02:51:48;4.07;;;3.37;;
5754;SDS011;2902;42.130;24.732;2023-04-16T02:54:14;4.20;;;3.30;;
5754;SDS011;2902;42.130;24.732;2023-04-16T02:56:41;3.27;;;2.93;;
5754;SDS011;2902;42.130;24.732;2023-04-16T02:59:08;8.43;;;3.10;;
5754;SDS011;2902;42.130;24.732;2023-04-16T03:01:34;6.60;;;3.13;;
5754;SDS011;2902;42.130;24.732;2023-04-16T03:04:03;5.90;;;3.47;;
5754;SDS011;2902;42.130;24.732;2023-04-16T03:06:29;6.23;;;3.60;;
5754;SDS011;2902;42.130;24.732;2023-04-16T03:08:56;4.23;;;3.50;;
5754;SDS011;2902;42.130;24.732;2023-04-16T03:11:23;3.30;;;2.97;;
5754;SDS011;2902;42.130;24.732;2023-04-16T03:13:50;4.57;;;4.17;;
5754;SDS011;2902;42.130;24.732;2023-04-16T03:16:17;4.63;;;4.10;;
5754;SDS011;2902;42.130;24.732;2023-04-16T03:18:44;4.60;;;3.60;;
5754;SDS011;2902;42.130;24.732;2023-04-16T03:21:12;7.60;;;4.70;;
5754;SDS011;2902;42.130;24.732;2023-04-16T03:23:39;9.23;;;4.60;;
5754;SDS011;2902;42.130;24.732;2023-04-16T03:26:06;10.70;;;4.83;;
5754;SDS011;2902;42.130;24.732;2023-04-16T03:28:32;6.73;;;4.33;;
5754;SDS011;2902;42.130;24.732;2023-04-16T03:30:59;9.93;;;5.10;;
5754;SDS011;2902;42.130;24.732;2023-04-16T03:33:26;5.57;;;4.93;;
5754;SDS011;2902;42.130;24.732;2023-04-16T03:35:55;5.37;;;4.13;;
5754;SDS011;2902;42.130;24.732;2023-04-16T03:38:23;5.00;;;4.50;;
5754;SDS011;2902;42.130;24.732;2023-04-16T03:40:51;4.83;;;4.10;;
5754;SDS011;2902;42.130;24.732;2023-04-16T03:43:17;4.73;;;4.33;;
5754;SDS011;2902;42.130;24.732;2023-04-16T03:45:44;4.17;;;3.70;;
5754;SDS011;2902;42.130;24.732;2023-04-16T03:48:11;6.07;;;3.77;;
5754;SDS011;2902;42.130;24.732;2023-04-16T03:50:37;4.80;;;4.10;;
5754;SDS011;2902;42.130;24.732;2023-04-16T03:53:04;9.47;;;4.93;;
5754;SDS011;2902;42.130;24.732;2023-04-16T03:55:33;9.30;;;4.37;;
5754;SDS011;2902;42.130;24.732;2023-04-16T03:58:00;5.73;;;4.37;;
5754;SDS011;2902;42.130;24.732;2023-04-16T04:00:27;5.47;;;4.97;;
5754;SDS011;2902;42.130;24.732;2023-04-16T04:02:54;6.80;;;4.60;;
5754;SDS011;2902;42.130;24.732;2023-04-16T04:05:21;6.40;;;4.97;;
5754;SDS011;2902;42.130;24.732;2023-04-16T04:07:47;10.93;;;5.10;;
5754;SDS011;2902;42.130;24.732;2023-04-16T04:10:14;7.83;;;5.37;;
5754;SDS011;2902;42.130;24.732;2023-04-16T04:12:42;6.13;;;5.63;;
5754;SDS011;2902;42.130;24.732;2023-04-16T04:15:09;5.57;;;5.07;;
5754;SDS011;2902;42.130;24.732;2023-04-16T04:17:37;8.73;;;6.53;;
5754;SDS011;2902;42.130;24.732;2023-04-16T04:20:04;13.40;;;6.13;;
5754;SDS011;2902;42.130;24.732;2023-04-16T04:22:31;7.03;;;6.30;;
5754;SDS011;2902;42.130;24.732;2023-04-16T04:24:58;9.73;;;6.27;;
5754;SDS011;2902;42.130;24.732;2023-04-16T04:27:24;8.40;;;6.03;;
5754;SDS011;2902;42.130;24.732;2023-04-16T04:29:52;6.87;;;6.27;;
5754;SDS011;2902;42.130;24.732;2023-04-16T04:32:19;7.07;;;6.37;;
5754;SDS011;2902;42.130;24.732;2023-04-16T04:34:46;11.90;;;6.40;;
5754;SDS011;2902;42.130;24.732;2023-04-16T04:37:12;8.53;;;6.53;;
5754;SDS011;2902;42.130;24.732;2023-04-16T04:39:39;6.60;;;6.00;;
5754;SDS011;2902;42.130;24.732;2023-04-16T04:42:06;12.93;;;6.23;;
5754;SDS011;2902;42.130;24.732;2023-04-16T04:44:33;10.30;;;6.53;;
5754;SDS011;2902;42.130;24.732;2023-04-16T04:47:01;11.03;;;6.20;;
5754;SDS011;2902;42.130;24.732;2023-04-16T04:49:28;7.47;;;5.70;;
5754;SDS011;2902;42.130;24.732;2023-04-16T04:51:55;7.07;;;5.97;;
5754;SDS011;2902;42.130;24.732;2023-04-16T04:54:22;10.10;;;5.40;;
5754;SDS011;2902;42.130;24.732;2023-04-16T04:56:49;5.80;;;5.30;;
5754;SDS011;2902;42.130;24.732;2023-04-16T04:59:16;6.07;;;5.00;;
5754;SDS011;2902;42.130;24.732;2023-04-16T05:01:43;9.13;;;5.27;;
5754;SDS011;2902;42.130;24.732;2023-04-16T05:04:11;9.60;;;6.27;;
5754;SDS011;2902;42.130;24.732;2023-04-16T05:06:38;8.77;;;5.80;;
5754;SDS011;2902;42.130;24.732;2023-04-16T05:09:04;10.33;;;6.00;;
5754;SDS011;2902;42.130;24.732;2023-04-16T05:11:35;10.50;;;6.60;;
5754;SDS011;2902;42.130;24.732;2023-04-16T05:14:02;9.70;;;6.90;;
5754;SDS011;2902;42.130;24.732;2023-04-16T05:16:29;44.60;;;8.30;;
5754;SDS011;2902;42.130;24.732;2023-04-16T05:18:55;14.00;;;6.30;;
5754;SDS011;2902;42.130;24.732;2023-04-16T05:21:24;44.37;;;7.30;;
5754;SDS011;2902;42.130;24.732;2023-04-16T05:23:51;18.77;;;5.83;;
5754;SDS011;2902;42.130;24.732;2023-04-16T05:26:18;15.80;;;5.40;;
5754;SDS011;2902;42.130;24.732;2023-04-16T05:28:45;12.03;;;4.90;;
5754;SDS011;2902;42.130;24.732;2023-04-16T05:31:12;117.07;;;13.43;;
5754;SDS011;2902;42.130;24.732;2023-04-16T05:33:38;28.43;;;6.00;;
5754;SDS011;2902;42.130;24.732;2023-04-16T05:36:05;11.83;;;4.80;;
5754;SDS011;2902;42.130;24.732;2023-04-16T05:38:33;7.30;;;4.57;;
5754;SDS011;2902;42.130;24.732;2023-04-16T05:41:00;8.70;;;4.80;;
5754;SDS011;2902;42.130;24.732;2023-04-16T05:43:27;9.93;;;5.00;;
5754;SDS011;2902;42.130;24.732;2023-04-16T05:45:53;5.67;;;4.13;;
5754;SDS011;2902;42.130;24.732;2023-04-16T05:48:20;12.37;;;4.40;;
5754;SDS011;2902;42.130;24.732;2023-04-16T05:50:47;5.60;;;3.73;;
5754;SDS011;2902;42.130;24.732;2023-04-16T05:53:15;8.17;;;3.00;;
5754;SDS011;2902;42.130;24.732;2023-04-16T05:55:44;5.30;;;3.90;;
5754;SDS011;2902;42.130;24.732;2023-04-16T05:58:11;6.40;;;3.57;;
5754;SDS011;2902;42.130;24.732;2023-04-16T06:00:38;7.17;;;3.67;;
5754;SDS011;2902;42.130;24.732;2023-04-16T06:03:04;3.83;;;3.13;;
5754;SDS011;2902;42.130;24.732;2023-04-16T06:05:31;4.60;;;3.30;;
5754;SDS011;2902;42.130;24.732;2023-04-16T06:07:58;6.60;;;4.30;;
5754;SDS011;2902;42.130;24.732;2023-04-16T06:10:25;4.07;;;3.27;;
5754;SDS011;2902;42.130;24.732;2023-04-16T06:12:53;2.77;;;2.47;;
5754;SDS011;2902;42.130;24.732;2023-04-16T06:15:20;3.40;;;2.43;;
5754;SDS011;2902;42.130;24.732;2023-04-16T06:17:47;4.07;;;3.20;;
5754;SDS011;2902;42.130;24.732;2023-04-16T06:20:14;6.00;;;3.30;;
5754;SDS011;2902;42.130;24.732;2023-04-16T06:22:41;8.27;;;3.03;;
5754;SDS011;2902;42.130;24.732;2023-04-16T06:25:08;4.63;;;3.10;;
5754;SDS011;2902;42.130;24.732;2023-04-16T06:27:35;7.13;;;2.90;;
5754;SDS011;2902;42.130;24.732;2023-04-16T06:30:03;3.50;;;2.80;;
5754;SDS011;2902;42.130;24.732;2023-04-16T06:32:31;3.40;;;2.37;;
5754;SDS011;2902;42.130;24.732;2023-04-16T06:34:58;2.90;;;2.70;;
5754;SDS011;2902;42.130;24.732;2023-04-16T06:37:25;6.30;;;2.80;;
5754;SDS011;2902;42.130;24.732;2023-04-16T06:39:51;3.73;;;2.53;;
5754;SDS011;2902;42.130;24.732;2023-04-16T06:42:18;3.73;;;2.80;;
5754;SDS011;2902;42.130;24.732;2023-04-16T06:44:45;3.73;;;3.37;;
5754;SDS011;2902;42.130;24.732;2023-04-16T06:47:13;5.80;;;3.70;;
5754;SDS011;2902;42.130;24.732;2023-04-16T06:49:41;3.40;;;3.10;;
5754;SDS011;2902;42.130;24.732;2023-04-16T06:52:07;4.43;;;3.13;;
5754;SDS011;2902;42.130;24.732;2023-04-16T06:54:34;6.23;;;2.70;;
5754;SDS011;2902;42.130;24.732;2023-04-16T06:57:01;3.70;;;2.43;;
5754;SDS011;2902;42.130;24.732;2023-04-16T06:59:28;2.80;;;2.60;;
5754;SDS011;2902;42.130;24.732;2023-04-16T07:01:55;3.67;;;2.93;;
5754;SDS011;2902;42.130;24.732;2023-04-16T07:04:23;4.47;;;2.70;;
5754;SDS011;2902;42.130;24.732;2023-04-16T07:06:50;4.53;;;2.77;;
5754;SDS011;2902;42.130;24.732;2023-04-16T07:09:17;4.20;;;2.50;;
5754;SDS011;2902;42.130;24.732;2023-04-16T07:11:44;3.87;;;2.77;;
5754;SDS011;2902;42.130;24.732;2023-04-16T07:14:12;2.97;;;2.40;;
5754;SDS011;2902;42.130;24.732;2023-04-16T07:16:39;4.50;;;2.57;;
5754;SDS011;2902;42.130;24.732;2023-04-16T07:19:06;4.13;;;2.73;;
5754;SDS011;2902;42.130;24.732;2023-04-16T07:21:34;5.00;;;3.07;;
5754;SDS011;2902;42.130;24.732;2023-04-16T07:24:01;7.87;;;2.63;;
5754;SDS011;2902;42.130;24.732;2023-04-16T07:26:27;4.67;;;2.23;;
5754;SDS011;2902;42.130;24.732;2023-04-16T07:28:54;5.27;;;2.90;;
5754;SDS011;2902;42.130;24.732;2023-04-16T07:31:21;6.50;;;2.73;;
5754;SDS011;2902;42.130;24.732;2023-04-16T07:33:48;3.83;;;2.57;;
5754;SDS011;2902;42.130;24.732;2023-04-16T07:36:15;5.73;;;2.67;;
5754;SDS011;2902;42.130;24.732;2023-04-16T07:38:43;8.27;;;3.00;;
5754;SDS011;2902;42.130;24.732;2023-04-16T07:41:09;3.57;;;3.03;;
5754;SDS011;2902;42.130;24.732;2023-04-16T07:43:36;3.07;;;2.77;;
5754;SDS011;2902;42.130;24.732;2023-04-16T07:46:03;3.60;;;2.80;;
5754;SDS011;2902;42.130;24.732;2023-04-16T07:48:30;3.17;;;2.97;;
5754;SDS011;2902;42.130;24.732;2023-04-16T07:50:57;4.07;;;2.80;;
5754;SDS011;2902;42.130;24.732;2023-04-16T07:53:24;5.50;;;2.87;;
5754;SDS011;2902;42.130;24.732;2023-04-16T07:55:52;4.33;;;2.87;;
5754;SDS011;2902;42.130;24.732;2023-04-16T07:58:19;2.87;;;2.30;;
5754;SDS011;2902;42.130;24.732;2023-04-16T08:00:45;3.83;;;3.10;;
5754;SDS011;2902;42.130;24.732;2023-04-16T08:03:12;4.27;;;3.00;;
5754;SDS011;2902;42.130;24.732;2023-04-16T08:05:40;6.57;;;3.43;;
5754;SDS011;2902;42.130;24.732;2023-04-16T08:08:06;4.13;;;3.17;;
5754;SDS011;2902;42.130;24.732;2023-04-16T08:10:33;4.83;;;2.80;;
5754;SDS011;2902;42.130;24.732;2023-04-16T08:13:01;2.80;;;2.60;;
5754;SDS011;2902;42.130;24.732;2023-04-16T08:15:28;7.70;;;3.10;;
5754;SDS011;2902;42.130;24.732;2023-04-16T08:17:55;4.53;;;2.47;;
5754;SDS011;2902;42.130;24.732;2023-04-16T08:20:22;5.50;;;2.83;;
5754;SDS011;2902;42.130;24.732;2023-04-16T08:22:49;3.27;;;2.60;;
5754;SDS011;2902;42.130;24.732;2023-04-16T08:25:15;5.77;;;2.70;;
5754;SDS011;2902;42.130;24.732;2023-04-16T08:27:42;4.10;;;3.00;;
5754;SDS011;2902;42.130;24.732;2023-04-16T08:30:10;3.77;;;3.10;;
5754;SDS011;2902;42.130;24.732;2023-04-16T08:32:37;3.80;;;2.90;;
5754;SDS011;2902;42.130;24.732;2023-04-16T08:35:05;3.10;;;2.77;;
5754;SDS011;2902;42.130;24.732;2023-04-16T08:37:32;3.90;;;3.20;;
5754;SDS011;2902;42.130;24.732;2023-04-16T08:39:58;5.73;;;2.87;;
5754;SDS011;2902;42.130;24.732;2023-04-16T08:42:28;2.90;;;2.70;;
5754;SDS011;2902;42.130;24.732;2023-04-16T08:45:00;4.53;;;2.73;;
5754;SDS011;2902;42.130;24.732;2023-04-16T08:47:33;5.47;;;3.30;;
5754;SDS011;2902;42.130;24.732;2023-04-16T08:50:02;4.47;;;3.80;;
5754;SDS011;2902;42.130;24.732;2023-04-16T08:52:29;7.00;;;2.80;;
5754;SDS011;2902;42.130;24.732;2023-04-16T08:54:59;6.27;;;3.40;;
5754;SDS011;2902;42.130;24.732;2023-04-16T08:57:29;4.70;;;3.50;;
5754;SDS011;2902;42.130;24.732;2023-04-16T09:00:04;4.73;;;3.23;;
5754;SDS011;2902;42.130;24.732;2023-04-16T09:02:34;5.17;;;3.10;;
5754;SDS011;2902;42.130;24.732;2023-04-16T09:05:01;8.00;;;3.20;;
5754;SDS011;2902;42.130;24.732;2023-04-16T09:07:31;3.20;;;3.00;;
5754;SDS011;2902;42.130;24.732;2023-04-16T09:09:59;7.93;;;3.47;;
5754;SDS011;2902;42.130;24.732;2023-04-16T09:12:26;3.83;;;3.03;;
5754;SDS011;2902;42.130;24.732;2023-04-16T09:14:55;2.93;;;2.50;;
5754;SDS011;2902;42.130;24.732;2023-04-16T09:17:23;4.23;;;3.20;;
5754;SDS011;2902;42.130;24.732;2023-04-16T09:19:51;5.67;;;2.93;;
5754;SDS011;2902;42.130;24.732;2023-04-16T09:22:19;2.80;;;2.50;;
5754;SDS011;2902;42.130;24.732;2023-04-16T09:24:46;3.97;;;1.93;;
5754;SDS011;2902;42.130;24.732;2023-04-16T09:27:12;3.70;;;2.20;;
5754;SDS011;2902;42.130;24.732;2023-04-16T09:29:40;4.50;;;2.43;;
5754;SDS011;2902;42.130;24.732;2023-04-16T09:32:08;3.53;;;2.47;;
5754;SDS011;2902;42.130;24.732;2023-04-16T09:37:24;4.67;;;2.50;;
5754;SDS011;2902;42.130;24.732;2023-04-16T09:39:51;4.10;;;2.10;;
5754;SDS011;2902;42.130;24.732;2023-04-16T09:42:20;3.83;;;2.57;;
5754;SDS011;2902;42.130;24.732;2023-04-16T09:44:48;6.30;;;2.63;;
5754;SDS011;2902;42.130;24.732;2023-04-16T09:47:15;3.93;;;2.50;;
5754;SDS011;2902;42.130;24.732;2023-04-16T09:49:42;4.97;;;2.40;;
5754;SDS011;2902;42.130;24.732;2023-04-16T09:52:12;3.63;;;2.40;;
5754;SDS011;2902;42.130;24.732;2023-04-16T09:54:44;4.63;;;3.90;;
5754;SDS011;2902;42.130;24.732;2023-04-16T09:57:17;8.00;;;3.33;;
5754;SDS011;2902;42.130;24.732;2023-04-16T09:59:45;4.07;;;3.03;;
5754;SDS011;2902;42.130;24.732;2023-04-16T10:02:13;3.00;;;2.70;;
5754;SDS011;2902;42.130;24.732;2023-04-16T10:04:46;2.93;;;2.30;;
5754;SDS011;2902;42.130;24.732;2023-04-16T10:07:15;3.40;;;2.20;;
5754;SDS011;2902;42.130;24.732;2023-04-16T10:09:42;2.20;;;2.10;;
5754;SDS011;2902;42.130;24.732;2023-04-16T10:12:09;3.97;;;2.10;;
5754;SDS011;2902;42.130;24.732;2023-04-16T10:14:37;5.20;;;2.30;;
5754;SDS011;2902;42.130;24.732;2023-04-16T10:17:04;5.80;;;1.83;;
5754;SDS011;2902;42.130;24.732;2023-04-16T10:19:32;4.33;;;2.10;;
5754;SDS011;2902;42.130;24.732;2023-04-16T10:21:59;2.63;;;2.17;;
5754;SDS011;2902;42.130;24.732;2023-04-16T10:24:28;3.30;;;2.03;;
5754;SDS011;2902;42.130;24.732;2023-04-16T10:26:56;4.17;;;1.80;;
5754;SDS011;2902;42.130;24.732;2023-04-16T10:29:23;5.40;;;2.67;;
5754;SDS011;2902;42.130;24.732;2023-04-16T10:31:52;2.40;;;2.13;;
5754;SDS011;2902;42.130;24.732;2023-04-16T10:34:20;3.27;;;2.57;;
5754;SDS011;2902;42.130;24.732;2023-04-16T10:36:48;2.80;;;2.37;;
5754;SDS011;2902;42.130;24.732;2023-04-16T10:39:18;3.37;;;2.40;;
5754;SDS011;2902;42.130;24.732;2023-04-16T10:41:47;4.70;;;2.53;;
5754;SDS011;2902;42.130;24.732;2023-04-16T10:44:15;2.77;;;2.50;;
5754;SDS011;2902;42.130;24.732;2023-04-16T10:46:44;4.60;;;2.50;;
5754;SDS011;2902;42.130;24.732;2023-04-16T10:49:14;3.83;;;2.30;;
5754;SDS011;2902;42.130;24.732;2023-04-16T10:51:42;4.90;;;2.57;;
5754;SDS011;2902;42.130;24.732;2023-04-16T10:54:19;3.53;;;2.53;;
5754;SDS011;2902;42.130;24.732;2023-04-16T10:56:48;4.77;;;2.83;;
5754;SDS011;2902;42.130;24.732;2023-04-16T10:59:16;3.80;;;2.57;;
5754;SDS011;2902;42.130;24.732;2023-04-16T11:01:44;5.20;;;2.40;;
5754;SDS011;2902;42.130;24.732;2023-04-16T11:04:28;2.80;;;2.10;;
5754;SDS011;2902;42.130;24.732;2023-04-16T11:06:59;2.43;;;2.20;;
5754;SDS011;2902;42.130;24.732;2023-04-16T11:09:43;2.60;;;2.30;;
5754;SDS011;2902;42.130;24.732;2023-04-16T11:12:13;3.63;;;2.47;;
5754;SDS011;2902;42.130;24.732;2023-04-16T11:14:43;5.80;;;2.47;;
5754;SDS011;2902;42.130;24.732;2023-04-16T11:17:13;3.73;;;2.50;;
5754;SDS011;2902;42.130;24.732;2023-04-16T11:19:40;6.07;;;2.67;;
5754;SDS011;2902;42.130;24.732;2023-04-16T11:22:10;2.90;;;2.40;;
5754;SDS011;2902;42.130;24.732;2023-04-16T11:24:38;4.23;;;2.57;;
5754;SDS011;2902;42.130;24.732;2023-04-16T11:27:05;3.97;;;2.93;;
5754;SDS011;2902;42.130;24.732;2023-04-16T11:29:33;3.50;;;2.97;;
5754;SDS011;2902;42.130;24.732;2023-04-16T11:32:00;3.50;;;2.27;;
5754;SDS011;2902;42.130;24.732;2023-04-16T11:34:27;3.60;;;2.60;;
5754;SDS011;2902;42.130;24.732;2023-04-16T11:36:54;17.23;;;4.50;;
5754;SDS011;2902;42.130;24.732;2023-04-16T11:39:21;51.53;;;12.40;;
5754;SDS011;2902;42.130;24.732;2023-04-16T11:41:48;8.17;;;4.20;;
5754;SDS011;2902;42.130;24.732;2023-04-16T11:44:17;97.82;;;35.33;;
5754;SDS011;2902;42.130;24.732;2023-04-16T11:46:46;99.63;;;39.80;;
5754;SDS011;2902;42.130;24.732;2023-04-16T11:49:13;40.77;;;19.10;;
5754;SDS011;2902;42.130;24.732;2023-04-16T11:51:42;36.77;;;15.20;;
5754;SDS011;2902;42.130;24.732;2023-04-16T11:54:16;17.77;;;9.37;;
5754;SDS011;2902;42.130;24.732;2023-04-16T11:56:44;7.80;;;4.70;;
5754;SDS011;2902;42.130;24.732;2023-04-16T11:59:13;4.30;;;3.20;;
5754;SDS011;2902;42.130;24.732;2023-04-16T12:01:42;8.10;;;3.33;;
5754;SDS011;2902;42.130;24.732;2023-04-16T12:04:13;5.37;;;3.07;;
5754;SDS011;2902;42.130;24.732;2023-04-16T12:09:35;5.00;;;3.00;;
5754;SDS011;2902;42.130;24.732;2023-04-16T12:12:03;9.27;;;2.93;;
5754;SDS011;2902;42.130;24.732;2023-04-16T12:14:30;6.47;;;3.67;;
5754;SDS011;2902;42.130;24.732;2023-04-16T12:19:49;15.83;;;5.23;;
5754;SDS011;2902;42.130;24.732;2023-04-16T12:22:17;5.30;;;3.20;;
5754;SDS011;2902;42.130;24.732;2023-04-16T12:24:54;10.43;;;4.17;;
5754;SDS011;2902;42.130;24.732;2023-04-16T12:27:21;8.70;;;4.10;;
5754;SDS011;2902;42.130;24.732;2023-04-16T12:30:01;8.83;;;3.60;;
5754;SDS011;2902;42.130;24.732;2023-04-16T12:32:30;7.53;;;3.70;;
5754;SDS011;2902;42.130;24.732;2023-04-16T12:34:57;4.57;;;3.87;;
5754;SDS011;2902;42.130;24.732;2023-04-16T12:37:24;5.17;;;3.17;;
5754;SDS011;2902;42.130;24.732;2023-04-16T12:39:50;18.30;;;7.87;;
5754;SDS011;2902;42.130;24.732;2023-04-16T12:42:17;7.53;;;3.90;;
5754;SDS011;2902;42.130;24.732;2023-04-16T12:44:44;6.20;;;3.77;;
5754;SDS011;2902;42.130;24.732;2023-04-16T12:47:11;5.40;;;3.50;;
5754;SDS011;2902;42.130;24.732;2023-04-16T12:49:39;3.63;;;3.20;;
5754;SDS011;2902;42.130;24.732;2023-04-16T12:52:06;4.03;;;2.80;;
5754;SDS011;2902;42.130;24.732;2023-04-16T12:54:32;4.77;;;3.00;;
5754;SDS011;2902;42.130;24.732;2023-04-16T12:56:59;3.30;;;3.00;;
5754;SDS011;2902;42.130;24.732;2023-04-16T12:59:26;5.23;;;2.93;;
5754;SDS011;2902;42.130;24.732;2023-04-16T13:01:52;6.33;;;3.30;;
5754;SDS011;2902;42.130;24.732;2023-04-16T13:04:19;6.87;;;3.33;;
5754;SDS011;2902;42.130;24.732;2023-04-16T13:06:47;7.23;;;4.63;;
5754;SDS011;2902;42.130;24.732;2023-04-16T13:09:14;10.90;;;7.67;;
5754;SDS011;2902;42.130;24.732;2023-04-16T13:11:43;7.70;;;5.77;;
5754;SDS011;2902;42.130;24.732;2023-04-16T13:14:10;7.67;;;3.90;;
5754;SDS011;2902;42.130;24.732;2023-04-16T13:16:36;3.37;;;3.03;;
5754;SDS011;2902;42.130;24.732;2023-04-16T13:19:03;3.20;;;2.87;;
5754;SDS011;2902;42.130;24.732;2023-04-16T13:21:30;4.87;;;3.07;;
5754;SDS011;2902;42.130;24.732;2023-04-16T13:23:58;3.03;;;2.67;;
5754;SDS011;2902;42.130;24.732;2023-04-16T13:26:25;3.63;;;2.30;;
5754;SDS011;2902;42.130;24.732;2023-04-16T13:28:52;3.10;;;2.50;;
5754;SDS011;2902;42.130;24.732;2023-04-16T13:31:19;3.37;;;2.93;;
5754;SDS011;2902;42.130;24.732;2023-04-16T13:33:46;2.43;;;2.20;;
5754;SDS011;2902;42.130;24.732;2023-04-16T13:36:13;4.70;;;2.77;;
5754;SDS011;2902;42.130;24.732;2023-04-16T13:38:40;3.10;;;2.13;;
5754;SDS011;2902;42.130;24.732;2023-04-16T13:41:08;3.90;;;2.37;;
5754;SDS011;2902;42.130;24.732;2023-04-16T13:43:35;3.80;;;2.67;;
5754;SDS011;2902;42.130;24.732;2023-04-16T13:46:02;3.50;;;2.97;;
5754;SDS011;2902;42.130;24.732;2023-04-16T13:48:29;4.50;;;3.30;;
5754;SDS011;2902;42.130;24.732;2023-04-16T13:50:56;4.90;;;2.77;;
5754;SDS011;2902;42.130;24.732;2023-04-16T13:53:23;3.40;;;3.10;;
5754;SDS011;2902;42.130;24.732;2023-04-16T13:55:50;5.37;;;3.47;;
5754;SDS011;2902;42.130;24.732;2023-04-16T13:58:18;3.77;;;2.77;;
5754;SDS011;2902;42.130;24.732;2023-04-16T14:00:45;5.00;;;3.33;;
5754;SDS011;2902;42.130;24.732;2023-04-16T14:03:11;3.10;;;2.33;;
5754;SDS011;2902;42.130;24.732;2023-04-16T14:05:38;3.43;;;2.50;;
5754;SDS011;2902;42.130;24.732;2023-04-16T14:08:05;2.10;;;2.00;;
5754;SDS011;2902;42.130;24.732;2023-04-16T14:10:32;3.87;;;2.10;;
5754;SDS011;2902;42.130;24.732;2023-04-16T14:12:58;1.97;;;1.80;;
5754;SDS011;2902;42.130;24.732;2023-04-16T14:15:26;2.90;;;2.53;;
5754;SDS011;2902;42.130;24.732;2023-04-16T14:17:54;4.57;;;2.53;;
5754;SDS011;2902;42.130;24.732;2023-04-16T14:20:20;3.00;;;2.70;;
5754;SDS011;2902;42.130;24.732;2023-04-16T14:22:47;3.53;;;2.97;;
5754;SDS011;2902;42.130;24.732;2023-04-16T14:25:14;5.47;;;2.77;;
5754;SDS011;2902;42.130;24.732;2023-04-16T14:27:41;8.33;;;3.10;;
5754;SDS011;2902;42.130;24.732;2023-04-16T14:30:08;3.00;;;2.57;;
5754;SDS011;2902;42.130;24.732;2023-04-16T14:32:36;6.53;;;2.90;;
5754;SDS011;2902;42.130;24.732;2023-04-16T14:35:03;6.33;;;3.37;;
5754;SDS011;2902;42.130;24.732;2023-04-16T14:37:31;4.97;;;3.33;;
5754;SDS011;2902;42.130;24.732;2023-04-16T14:39:59;4.93;;;3.40;;
5754;SDS011;2902;42.130;24.732;2023-04-16T14:42:26;4.77;;;3.03;;
5754;SDS011;2902;42.130;24.732;2023-04-16T14:44:53;5.73;;;3.50;;
5754;SDS011;2902;42.130;24.732;2023-04-16T14:47:20;3.67;;;3.20;;
5754;SDS011;2902;42.130;24.732;2023-04-16T14:49:48;7.80;;;3.40;;
5754;SDS011;2902;42.130;24.732;2023-04-16T14:52:15;5.67;;;3.30;;
5754;SDS011;2902;42.130;24.732;2023-04-16T14:54:41;8.13;;;3.27;;
5754;SDS011;2902;42.130;24.732;2023-04-16T14:57:08;7.90;;;3.47;;
5754;SDS011;2902;42.130;24.732;2023-04-16T14:59:35;5.40;;;3.53;;
5754;SDS011;2902;42.130;24.732;2023-04-16T15:02:01;4.77;;;4.07;;
5754;SDS011;2902;42.130;24.732;2023-04-16T15:04:28;6.73;;;2.97;;
5754;SDS011;2902;42.130;24.732;2023-04-16T15:06:57;4.40;;;3.60;;
5754;SDS011;2902;42.130;24.732;2023-04-16T15:09:24;6.07;;;3.30;;